Flight Track Log - Related Links

Times and Time Zones

All times are in EDT time to prevent confusion due to time zone crossing. See the UPS1337 flight status page for this flight to view local times or setup timezone preferences in your user account.

Time Position Orientation Groundspeed Altitude Reporting Facility
EDT Latitude Longitude Course Direction KTS MPH feet Rate Location/Type
Tue 09:41:54 PM 27.9167 -82.6833 319° Northwest 160 184 500  Level Tampa TRACON
Tue 09:42:12 PM 27.9333 -82.7000 319° Northwest 163 188 1,300 1,692 Climbing Tampa TRACON
Tue 09:43:12 PM 27.9833 -82.6833 16° North 215 247 2,700 1,750 Climbing Tampa TRACON
Tue 09:44:12 PM 28.0500 -82.7000 348° North 267 307 4,800 2,550 Climbing Tampa TRACON
Tue 09:45:12 PM 28.1167 -82.7333 336° Northwest 282 325 7,800 2,258 Climbing Tampa TRACON
Tue 09:47:26 PM 28.2981 -82.7672 351° North 332 382 12,100 1,908 Climbing Miami Center
Tue 09:48:27 PM 28.4006 -82.7642 North 361 415 14,000 1,967 Climbing Miami Center
Tue 09:49:28 PM 28.5097 -82.7611 North 387 445 16,100 1,918 Climbing Miami Center
Tue 09:50:29 PM 28.6067 -82.7906 345° North 393 452 17,900 1,770 Climbing Miami Center
Tue 09:51:30 PM 28.7125 -82.8322 341° North 397 457 19,700 2,164 Climbing Miami Center
Tue 09:52:31 PM 28.8433 -82.8833 341° North 415 478 22,300 2,262 Climbing Miami Center
Tue 09:53:32 PM 28.9553 -82.9258 342° North 421 484 24,300 1,869 Climbing Miami Center
Tue 09:54:33 PM 29.0689 -82.9703 341° North 428 493 26,100 1,672 Climbing Miami Center
Tue 09:55:34 PM 29.1844 -83.0164 341° North 437 503 27,700 1,574 Climbing Miami Center
Tue 09:56:35 PM 29.3042 -83.0633 341° North 449 517 29,300 1,547 Climbing Miami Center
Tue 09:57:42 PM 29.4269 -83.1144 340° North 441 507 31,000 1,748 Climbing Jacksonville Center
Tue 09:58:42 PM 29.5500 -83.1625 341° North 454 522 33,000 759 Climbing Jacksonville Center
Tue 10:04:17 PM 30.2013 -83.4191 341° North 432 497 36,000 484 Climbing FlightAware ADS-B (KONZ)
Tue 10:04:54 PM 30.2617 -83.4433 341° North 433 498 36,000  Level FlightAware ADS-B (KONZ)
Tue 10:05:25 PM 30.3309 -83.4712 341° North 434 499 36,000  Level FlightAware ADS-B (KONZ)
Tue 10:06:05 PM 30.4068 -83.5018 341° North 435 501 36,000  Level FlightAware ADS-B (KONZ)
Tue 10:07:17 PM 30.5441 -83.5573 341° North 437 503 36,000  Level FlightAware ADS-B (KONZ)
Tue 10:07:49 PM 30.6008 -83.5803 341° North 437 503 36,000  Level FlightAware ADS-B (KONZ)
Tue 10:08:40 PM 30.7000 -83.6206 341° North 437 503 36,000  Level FlightAware ADS-B (KONZ)
Tue 10:09:19 PM 30.7766 -83.6517 341° North 437 503 36,000  Level FlightAware ADS-B (KONZ)
Tue 10:09:51 PM 30.8362 -83.6759 341° North 438 504 36,000  Level FlightAware ADS-B (KONZ)
Tue 10:10:21 PM 30.8936 -83.6993 341° North 437 503 36,000  Level FlightAware ADS-B (KONZ)
Tue 10:10:52 PM 30.9549 -83.7244 341° North 436 502 36,000  Level FlightAware ADS-B (KONZ)
Tue 10:11:22 PM 31.0118 -83.7478 341° North 435 501 36,000  Level FlightAware ADS-B (KONZ)
Tue 10:12:11 PM 31.1047 -83.7859 341° North 433 498 36,000  Level FlightAware ADS-B (KONZ)
Tue 10:12:46 PM 31.1642 -83.8133 341° North 425 489 36,000  Level Atlanta Center
Tue 10:13:46 PM 31.2769 -83.8592 341° North 425 489 36,000  Level Atlanta Center
Tue 10:14:46 PM 31.3875 -83.9050 341° North 425 489 36,000  Level Atlanta Center
Tue 10:15:46 PM 31.4878 -83.9489 340° North 425 489 36,000  Level Atlanta Center
Tue 10:16:46 PM 31.6067 -83.9778 348° North 425 489 36,000  Level Atlanta Center
Tue 10:17:46 PM 31.7319 -83.9950 353° North 436 502 36,000  Level Atlanta Center
Tue 10:18:46 PM 31.8531 -84.0119 353° North 441 507 36,000  Level Atlanta Center
Tue 10:19:46 PM 31.9742 -84.0292 353° North 441 507 36,000  Level Atlanta Center
Tue 10:20:46 PM 32.0972 -84.0486 352° North 447 514 36,000  Level Atlanta Center
Tue 10:21:46 PM 32.2203 -84.0658 353° North 447 514 36,000  Level Atlanta Center
Tue 10:22:46 PM 32.3394 -84.0856 352° North 447 514 36,000  Level Atlanta Center
Tue 10:23:46 PM 32.4606 -84.1053 352° North 447 514 36,000  Level Atlanta Center
Tue 10:24:46 PM 32.5814 -84.1225 353° North 447 514 36,000  Level Atlanta Center
Tue 10:25:46 PM 32.7047 -84.1425 352° North 447 514 36,000  Level Atlanta Center
Tue 10:26:46 PM 32.8256 -84.1625 352° North 447 514 36,000  Level Atlanta Center
Tue 10:27:46 PM 32.9467 -84.1800 353° North 447 514 36,000  Level Atlanta Center
Tue 10:28:46 PM 33.0656 -84.2000 352° North 442 509 36,000  Level Atlanta Center
Tue 10:29:46 PM 33.1867 -84.2175 353° North 437 503 36,000  Level Atlanta Center
Tue 10:30:46 PM 33.3078 -84.2353 353° North 437 503 36,000  Level Atlanta Center
Tue 10:36:19 PM 34.0691 -84.3521 352° North 437 503 36,000  Level FlightAware ADS-B (KDZJ)
Tue 10:36:59 PM 34.1492 -84.3649 352° North 437 503 36,000  Level FlightAware ADS-B (KDZJ)
Tue 10:37:39 PM 34.2289 -84.3777 352° North 436 502 36,000 -74 Level FlightAware ADS-B (KDZJ)
Tue 10:38:20 PM 34.3105 -84.3910 352° North 436 502 35,900 -675 Descending FlightAware ADS-B (KDZJ)
Tue 10:38:59 PM 34.3895 -84.4039 352° North 439 505 35,100 -684 Descending FlightAware ADS-B (KDZJ)
Tue 10:39:39 PM 34.4693 -84.4170 352° North 441 507 35,000 -75 Descending FlightAware ADS-B (KDZJ)
Tue 10:40:19 PM 34.5522 -84.4307 352° North 437 503 35,000  Level FlightAware ADS-B (KDZJ)
Tue 10:40:59 PM 34.6323 -84.4438 352° North 438 504 35,000  Level FlightAware ADS-B (KDZJ)
Tue 10:41:39 PM 34.7138 -84.4571 352° North 439 505 35,000  Level FlightAware ADS-B (KDZJ)
Tue 10:42:19 PM 34.7971 -84.4707 352° North 439 505 35,000  Level FlightAware ADS-B (KDZJ)
Tue 10:42:59 PM 34.8795 -84.4843 352° North 439 505 35,000  Level FlightAware ADS-B (KDZJ)
Tue 10:43:38 PM 34.9601 -84.4977 352° North 439 505 35,000  Level FlightAware ADS-B (KDZJ)
Tue 10:44:18 PM 35.0412 -84.5110 352° North 438 504 35,000  Level FlightAware ADS-B (KDZJ)
Tue 10:44:59 PM 35.1241 -84.5249 352° North 438 504 35,000  Level FlightAware ADS-B (KDZJ)
Tue 10:45:37 PM 35.2021 -84.5380 352° North 437 503 35,000  Level FlightAware ADS-B (KDZJ)
Tue 10:46:12 PM 35.2730 -84.5498 352° North 436 502 35,000  Level FlightAware ADS-B (KDZJ)
Tue 10:46:55 PM 35.2778 -84.5506 352° North 445 512 35,000  Level FlightAware ADS-B (KMDQ)
Tue 10:47:42 PM 35.3792 -84.5676 352° North 444 511 35,000 -345 Level FlightAware ADS-B (KMDQ)
Tue 10:48:22 PM 35.4576 -84.5808 352° North 443 510 34,500 -750 Descending FlightAware ADS-B (KMDQ)
Tue 10:49:42 PM 35.6120 -84.6062 353° North 433 498 33,500 -964 Descending FlightAware ADS-B (KMDQ)
Tue 10:53:02 PM 36.0046 -84.6703 352° North 438 504 30,000 -897 Descending FlightAware ADS-B (KMDQ)
Tue 10:53:36 PM 36.0789 -84.6824 353° North 443 510 30,000 -571 Level FlightAware ADS-B (KMDQ)
Tue 10:55:08 PM 36.2796 -84.7152 352° North 445 512 28,800 -671 Descending FlightAware ADS-B
Tue 10:56:26 PM 36.4354 -84.7418 352° North 404 465 28,100 -589 Descending FlightAware ADS-B
Tue 10:57:51 PM 36.5517 -84.8217 296° West 306 352 27,200 -1,102 Descending FlightAware ADS-B
Tue 10:58:53 PM 36.5857 -84.9212 293° West 310 357 25,400 -1,641 Descending FlightAware ADS-B
Tue 10:59:48 PM 36.6013 -84.9656 310° West 370 426 24,000 -977 Descending FlightAware ADS-B
Tue 11:00:19 PM 36.6697 -85.0553 332° Northwest 397 457 24,000  Level FlightAware ADS-B (EPWR / WRO)
Tue 11:00:51 PM 36.7208 -85.0734 357° North 426 490 24,000 -511 Level FlightAware ADS-B
Tue 11:01:53 PM 36.8488 -85.0316 32° Northeast 451 519 23,200 -1,122 Descending FlightAware ADS-B
Tue 11:02:54 PM 36.9546 -84.9483 32° Northeast 449 517 21,700 -1,339 Descending FlightAware ADS-B
Tue 11:03:54 PM 37.0608 -84.8674 31° Northeast 429 494 20,500 -900 Descending FlightAware ADS-B
Tue 11:04:54 PM 37.1558 -84.7967 31° Northeast 386 444 19,900 -900 Descending FlightAware ADS-B
Tue 11:05:54 PM 37.2499 -84.7312 18° North 359 413 18,700 -1,250 Descending FlightAware ADS-B
Tue 11:06:54 PM 37.3287 -84.7223 North 340 391 17,400 -1,385 Descending FlightAware ADS-B
Tue 11:10:27 PM 37.6237 -84.9243 325° Northwest 331 381 12,400 -1,291 Descending FlightAware ADS-B (KCVG)
Tue 11:11:56 PM 37.7168 -85.0396 312° West 313 360 10,900 -932 Descending FlightAware ADS-B
Tue 11:12:55 PM 37.7745 -85.1194 313° West 309 356 10,100 -400 Descending FlightAware ADS-B
Tue 11:13:56 PM 37.8298 -85.2040 303° West 304 350 10,100  Level FlightAware ADS-B
Tue 11:14:56 PM 37.8747 -85.2933 302° West 305 351 10,100  Level FlightAware ADS-B
Tue 11:15:37 PM 37.9059 -85.3545 303° West 307 353 10,100 -209 Level FlightAware ADS-B (EPWR / WRO)
Tue 11:16:51 PM 37.9612 -85.4603 304° West 267 307 9,700 -769 Descending FlightAware ADS-B (EPWR / WRO)
Tue 11:17:34 PM 37.9855 -85.5191 293° West 263 303 8,600 -1,655 Descending FlightAware ADS-B (EPWR / WRO)
Tue 11:17:49 PM 37.9930 -85.5412 293° West 264 304 8,100 -1,684 Descending FlightAware ADS-B (EPWR / WRO)
Tue 11:18:31 PM 38.0108 -85.5947 293° West 260 299 7,000 -1,065 Descending FlightAware ADS-B (EPWR / WRO)
Tue 11:18:51 PM 38.0222 -85.6279 294° West 244 281 7,000 -535 Level FlightAware ADS-B (EPWR / WRO)
Tue 11:20:12 PM 38.0574 -85.7229 295° West 212 244 6,100 -383 Descending FlightAware ADS-B
Tue 11:21:12 PM 38.0831 -85.7919 295° West 219 252 6,100  Level FlightAware ADS-B
Tue 11:22:13 PM 38.1335 -85.8354 343° North 249 287 6,100 -176 Level FlightAware ADS-B
Tue 11:23:28 PM 38.2160 -85.8658 344° North 243 280 5,700 -621 Descending FlightAware ADS-B
Tue 11:24:09 PM 38.2561 -85.8806 344° North 249 287 4,900 -1,176 Descending Indianapolis Center
Tue 11:25:10 PM 38.3231 -85.9033 345° North 249 287 3,700 -934 Descending Indianapolis Center
Tue 11:26:11 PM 38.3908 -85.9208 349° North 252 290 3,000 -344 Descending Indianapolis Center
Tue 11:27:12 PM 38.4025 -85.8550 77° East 231 266 3,000  Level Indianapolis Center
Tue 11:28:13 PM 38.3644 -85.8061 135° Southeast 206 237 3,000  Level Indianapolis Center
Tue 11:29:14 PM 38.3150 -85.7922 168° South 192 221 3,000 -295 Level Indianapolis Center
Tue 11:30:15 PM 38.2736 -85.7775 164° South 174 200 2,400 -344 Descending Indianapolis Center
Tue 11:31:16 PM 38.2325 -85.7642 166° South 171 197 2,300 -655 Descending Indianapolis Center
Tue 11:33:00 PM 38.1833 -85.7500 167° South 118 136 600 -981 Descending Louisville TRACON

Login

Don't have an account? Register now (free) for customized features, flight alerts, and more!